QFA779 YSSY-YMML
Flight info
| Callsign | QFA779 |
|---|---|
| Flight time | 1h 11m |
| Altitude | 36000 |
| Route | WOL DCT CB DCT BOYSE |
| Aircraft | A21N/M-SDE2E3FGHIRWXY/LB1 |
Departure
| Time | 2026-05-07 22:37 |
|---|---|
| Airport | Sydney Kingsford Smith International Airport (YSSY) |
Arrival
| Time | 2026-05-07 23:48 |
|---|---|
| Airport | Melbourne Airport (YMML) |
| Time | Latitude | Longitude | Altitude | Speed | Heading |
|---|---|---|---|---|---|
| 2026-05-07 21:39 | -33.93403 | 151.16770 | 36 ft | 0 kts | 258° |
| 2026-05-07 22:21 | -33.93399 | 151.16790 | 35 ft | 4 kts | 258° |
| 2026-05-07 22:21 | -33.93393 | 151.16822 | 35 ft | 4 kts | 258° |
| 2026-05-07 22:21 | -33.93388 | 151.16854 | 35 ft | 4 kts | 258° |
| 2026-05-07 22:22 | -33.93384 | 151.16875 | 35 ft | 0 kts | 258° |
| 2026-05-07 22:26 | -33.93384 | 151.16874 | 35 ft | 2 kts | 259° |
| 2026-05-07 22:27 | -33.93354 | 151.16866 | 35 ft | 8 kts | 22° |
| 2026-05-07 22:27 | -33.93304 | 151.16907 | 35 ft | 10 kts | 49° |
| 2026-05-07 22:27 | -33.93287 | 151.16992 | 35 ft | 12 kts | 109° |
| 2026-05-07 22:27 | -33.93353 | 151.17062 | 35 ft | 14 kts | 161° |
| 2026-05-07 22:28 | -33.93453 | 151.17094 | 35 ft | 16 kts | 168° |
| 2026-05-07 22:28 | -33.93566 | 151.17121 | 35 ft | 17 kts | 169° |
| 2026-05-07 22:28 | -33.93691 | 151.17151 | 34 ft | 19 kts | 168° |
| 2026-05-07 22:28 | -33.93813 | 151.17185 | 34 ft | 16 kts | 167° |
| 2026-05-07 22:29 | -33.93921 | 151.17213 | 34 ft | 15 kts | 167° |
| 2026-05-07 22:29 | -33.93990 | 151.17231 | 34 ft | 7 kts | 169° |
| 2026-05-07 22:29 | -33.94045 | 151.17244 | 34 ft | 9 kts | 169° |
| 2026-05-07 22:29 | -33.94117 | 151.17262 | 34 ft | 13 kts | 167° |
| 2026-05-07 22:30 | -33.94226 | 151.17292 | 34 ft | 18 kts | 167° |
| 2026-05-07 22:30 | -33.94358 | 151.17326 | 36 ft | 20 kts | 168° |
| 2026-05-07 22:30 | -33.94496 | 151.17361 | 36 ft | 18 kts | 168° |
| 2026-05-07 22:30 | -33.94610 | 151.17410 | 36 ft | 18 kts | 171° |
| 2026-05-07 22:31 | -33.94737 | 151.17423 | 36 ft | 19 kts | 165° |
| 2026-05-07 22:31 | -33.94873 | 151.17460 | 35 ft | 20 kts | 169° |
| 2026-05-07 22:31 | -33.95015 | 151.17496 | 35 ft | 20 kts | 168° |
| 2026-05-07 22:31 | -33.95106 | 151.17519 | 35 ft | 12 kts | 168° |
| 2026-05-07 22:32 | -33.95198 | 151.17542 | 35 ft | 16 kts | 167° |
| 2026-05-07 22:32 | -33.95311 | 151.17572 | 35 ft | 18 kts | 167° |
| 2026-05-07 22:32 | -33.95437 | 151.17606 | 35 ft | 19 kts | 168° |
| 2026-05-07 22:32 | -33.95574 | 151.17640 | 35 ft | 21 kts | 167° |
| 2026-05-07 22:33 | -33.95720 | 151.17679 | 36 ft | 22 kts | 167° |
| 2026-05-07 22:33 | -33.95878 | 151.17720 | 35 ft | 24 kts | 168° |
| 2026-05-07 22:33 | -33.96044 | 151.17763 | 36 ft | 25 kts | 168° |
| 2026-05-07 22:33 | -33.96221 | 151.17809 | 35 ft | 27 kts | 168° |
| 2026-05-07 22:34 | -33.96349 | 151.17842 | 35 ft | 14 kts | 167° |
| 2026-05-07 22:34 | -33.96430 | 151.17884 | 36 ft | 12 kts | 123° |
| 2026-05-07 22:34 | -33.96436 | 151.17933 | 35 ft | 0 kts | 79° |
| 2026-05-07 22:35 | -33.96435 | 151.17938 | 35 ft | 2 kts | 79° |
| 2026-05-07 22:35 | -33.96425 | 151.17998 | 35 ft | 10 kts | 77° |
| 2026-05-07 22:35 | -33.96380 | 151.18053 | 35 ft | 10 kts | 355° |
| 2026-05-07 22:35 | -33.96361 | 151.18048 | 35 ft | 0 kts | 347° |
| 2026-05-07 22:36 | -33.96285 | 151.18028 | 35 ft | 41 kts | 347° |
| 2026-05-07 22:36 | -33.95744 | 151.17885 | 34 ft | 115 kts | 347° |
| 2026-05-07 22:36 | -33.94767 | 151.17634 | 36 ft | 169 kts | 346° |
| 2026-05-07 22:37 | -33.93610 | 151.17365 | 710 ft | 164 kts | 345° |
| 2026-05-07 22:37 | -33.92518 | 151.17014 | 1412 ft | 160 kts | 322° |
| 2026-05-07 22:37 | -33.91841 | 151.16095 | 1954 ft | 149 kts | 283° |
| 2026-05-07 22:37 | -33.91514 | 151.14830 | 2360 ft | 168 kts | 281° |
| 2026-05-07 22:38 | -33.91145 | 151.13406 | 2893 ft | 187 kts | 277° |
| 2026-05-07 22:38 | -33.91242 | 151.11773 | 3223 ft | 212 kts | 247° |
| 2026-05-07 22:38 | -33.92175 | 151.10305 | 3640 ft | 234 kts | 215° |
| 2026-05-07 22:38 | -33.93673 | 151.09466 | 4539 ft | 241 kts | 200° |
| 2026-05-07 22:39 | -33.95266 | 151.08798 | 5498 ft | 243 kts | 201° |
| 2026-05-07 22:39 | -33.96866 | 151.08096 | 6453 ft | 246 kts | 202° |
| 2026-05-07 22:39 | -33.98468 | 151.07317 | 7341 ft | 250 kts | 204° |
| 2026-05-07 22:39 | -34.00081 | 151.06510 | 8227 ft | 252 kts | 205° |
| 2026-05-07 22:40 | -34.01714 | 151.05700 | 9140 ft | 255 kts | 205° |
| 2026-05-07 22:40 | -34.02804 | 151.05162 | 9739 ft | 256 kts | 205° |
| 2026-05-07 22:40 | -34.04480 | 151.04337 | 10377 ft | 269 kts | 205° |
| 2026-05-07 22:40 | -34.06279 | 151.03451 | 10673 ft | 291 kts | 205° |
| 2026-05-07 22:41 | -34.08224 | 151.02496 | 10945 ft | 312 kts | 205° |
| 2026-05-07 22:41 | -34.10283 | 151.01489 | 11385 ft | 326 kts | 205° |
| 2026-05-07 22:41 | -34.12403 | 151.00455 | 12121 ft | 330 kts | 205° |
| 2026-05-07 22:41 | -34.14532 | 150.99415 | 12963 ft | 331 kts | 205° |
| 2026-05-07 22:42 | -34.16670 | 150.98369 | 13828 ft | 332 kts | 206° |
| 2026-05-07 22:42 | -34.18812 | 150.97319 | 14603 ft | 333 kts | 206° |
| 2026-05-07 22:42 | -34.20974 | 150.96260 | 15302 ft | 336 kts | 206° |
| 2026-05-07 22:42 | -34.23152 | 150.95193 | 15984 ft | 339 kts | 206° |
| 2026-05-07 22:43 | -34.25350 | 150.94116 | 16670 ft | 342 kts | 206° |
| 2026-05-07 22:43 | -34.27567 | 150.93028 | 17360 ft | 345 kts | 207° |
| 2026-05-07 22:43 | -34.29804 | 150.91927 | 18067 ft | 349 kts | 207° |
| 2026-05-07 22:43 | -34.32061 | 150.90816 | 18696 ft | 352 kts | 207° |
| 2026-05-07 22:44 | -34.34338 | 150.89694 | 19280 ft | 355 kts | 207° |
| 2026-05-07 22:44 | -34.36630 | 150.88563 | 19867 ft | 357 kts | 207° |
| 2026-05-07 22:44 | -34.38936 | 150.87427 | 20475 ft | 359 kts | 206° |
| 2026-05-07 22:44 | -34.41257 | 150.86286 | 21064 ft | 361 kts | 206° |
| 2026-05-07 22:45 | -34.43599 | 150.85132 | 21634 ft | 364 kts | 206° |
| 2026-05-07 22:45 | -34.45953 | 150.83972 | 22207 ft | 367 kts | 206° |
| 2026-05-07 22:45 | -34.48317 | 150.82805 | 22766 ft | 369 kts | 206° |
| 2026-05-07 22:45 | -34.50698 | 150.81624 | 23388 ft | 369 kts | 206° |
| 2026-05-07 22:46 | -34.52993 | 150.80238 | 23902 ft | 368 kts | 213° |
| 2026-05-07 22:46 | -34.55074 | 150.78437 | 24351 ft | 368 kts | 221° |
| 2026-05-07 22:46 | -34.56881 | 150.76230 | 24774 ft | 370 kts | 230° |
| 2026-05-07 22:46 | -34.58358 | 150.73700 | 25132 ft | 375 kts | 237° |
| 2026-05-07 22:47 | -34.59654 | 150.70930 | 25490 ft | 380 kts | 239° |
| 2026-05-07 22:47 | -34.60931 | 150.68120 | 25935 ft | 381 kts | 239° |
| 2026-05-07 22:47 | -34.62220 | 150.65299 | 26322 ft | 384 kts | 239° |
| 2026-05-07 22:47 | -34.63529 | 150.62452 | 26742 ft | 387 kts | 239° |
| 2026-05-07 22:48 | -34.64849 | 150.59587 | 27146 ft | 390 kts | 239° |
| 2026-05-07 22:48 | -34.66179 | 150.56701 | 27560 ft | 392 kts | 239° |
| 2026-05-07 22:48 | -34.67517 | 150.53799 | 27947 ft | 395 kts | 239° |
| 2026-05-07 22:48 | -34.68862 | 150.50877 | 28344 ft | 397 kts | 239° |
| 2026-05-07 22:49 | -34.70207 | 150.47950 | 28832 ft | 396 kts | 239° |
| 2026-05-07 22:49 | -34.71550 | 150.45030 | 29374 ft | 395 kts | 239° |
| 2026-05-07 22:49 | -34.72884 | 150.42128 | 29904 ft | 393 kts | 240° |
| 2026-05-07 22:49 | -34.74212 | 150.39237 | 30395 ft | 391 kts | 240° |
| 2026-05-07 22:50 | -34.75534 | 150.36352 | 30804 ft | 389 kts | 240° |
| 2026-05-07 22:50 | -34.76848 | 150.33484 | 31181 ft | 388 kts | 240° |
| 2026-05-07 22:50 | -34.78161 | 150.30617 | 31531 ft | 387 kts | 240° |
| 2026-05-07 22:50 | -34.79467 | 150.27759 | 31979 ft | 385 kts | 240° |
| 2026-05-07 22:51 | -34.80764 | 150.24923 | 32377 ft | 383 kts | 240° |
| 2026-05-07 22:51 | -34.82056 | 150.22094 | 32734 ft | 382 kts | 241° |
| 2026-05-07 22:51 | -34.83344 | 150.19274 | 33073 ft | 381 kts | 241° |
| 2026-05-07 22:51 | -34.84628 | 150.16458 | 33389 ft | 380 kts | 242° |
| 2026-05-07 22:52 | -34.85906 | 150.13650 | 33701 ft | 379 kts | 242° |
| 2026-05-07 22:52 | -34.87184 | 150.10842 | 34004 ft | 379 kts | 242° |
| 2026-05-07 22:52 | -34.88458 | 150.08043 | 34277 ft | 378 kts | 242° |
| 2026-05-07 22:52 | -34.89733 | 150.05239 | 34514 ft | 378 kts | 242° |
| 2026-05-07 22:53 | -34.91004 | 150.02439 | 34703 ft | 378 kts | 243° |
| 2026-05-07 22:53 | -34.92260 | 149.99670 | 34892 ft | 379 kts | 243° |
| 2026-05-07 22:53 | -34.93534 | 149.96856 | 35152 ft | 379 kts | 242° |
| 2026-05-07 22:53 | -34.94807 | 149.94049 | 35412 ft | 378 kts | 241° |
| 2026-05-07 22:54 | -34.96074 | 149.91252 | 35621 ft | 377 kts | 241° |
| 2026-05-07 22:54 | -34.97340 | 149.88452 | 35778 ft | 377 kts | 241° |
| 2026-05-07 22:54 | -34.98605 | 149.85652 | 35945 ft | 377 kts | 242° |
| 2026-05-07 22:54 | -34.99873 | 149.82845 | 36136 ft | 378 kts | 242° |
| 2026-05-07 22:55 | -35.01140 | 149.80039 | 36233 ft | 378 kts | 242° |
| 2026-05-07 22:55 | -35.03667 | 149.74433 | 36215 ft | 377 kts | 242° |
| 2026-05-07 22:56 | -35.06187 | 149.68830 | 36212 ft | 376 kts | 242° |
| 2026-05-07 22:56 | -35.08698 | 149.63237 | 36218 ft | 375 kts | 240° |
| 2026-05-07 22:57 | -35.11203 | 149.57655 | 36177 ft | 377 kts | 240° |
| 2026-05-07 22:57 | -35.13738 | 149.51986 | 36206 ft | 382 kts | 240° |
| 2026-05-07 22:58 | -35.16286 | 149.46285 | 36204 ft | 382 kts | 240° |
| 2026-05-07 22:58 | -35.18828 | 149.40584 | 36191 ft | 382 kts | 240° |
| 2026-05-07 22:59 | -35.21352 | 149.34920 | 36197 ft | 381 kts | 240° |
| 2026-05-07 22:59 | -35.23880 | 149.29236 | 36176 ft | 380 kts | 240° |
| 2026-05-07 23:00 | -35.26403 | 149.23551 | 36170 ft | 380 kts | 240° |
| 2026-05-07 23:00 | -35.29107 | 149.17995 | 36170 ft | 380 kts | 234° |
| 2026-05-07 23:01 | -35.32241 | 149.12787 | 36172 ft | 380 kts | 234° |
| 2026-05-07 23:01 | -35.35384 | 149.07582 | 36188 ft | 380 kts | 234° |
| 2026-05-07 23:02 | -35.38527 | 149.02351 | 36173 ft | 383 kts | 234° |
| 2026-05-07 23:02 | -35.41682 | 148.97090 | 36185 ft | 383 kts | 234° |
| 2026-05-07 23:03 | -35.44842 | 148.91810 | 36193 ft | 384 kts | 234° |
| 2026-05-07 23:03 | -35.47998 | 148.86531 | 36190 ft | 384 kts | 234° |
| 2026-05-07 23:04 | -35.51153 | 148.81244 | 36205 ft | 384 kts | 233° |
| 2026-05-07 23:04 | -35.54311 | 148.75945 | 36197 ft | 385 kts | 233° |
| 2026-05-07 23:05 | -35.57480 | 148.70622 | 36179 ft | 387 kts | 233° |
| 2026-05-07 23:05 | -35.60632 | 148.65314 | 36199 ft | 387 kts | 234° |
| 2026-05-07 23:06 | -35.63827 | 148.59931 | 36200 ft | 387 kts | 234° |
| 2026-05-07 23:06 | -35.66978 | 148.54612 | 36217 ft | 387 kts | 233° |
| 2026-05-07 23:07 | -35.70144 | 148.49256 | 36208 ft | 387 kts | 233° |
| 2026-05-07 23:07 | -35.73315 | 148.43884 | 36208 ft | 389 kts | 233° |
| 2026-05-07 23:08 | -35.76497 | 148.38488 | 36218 ft | 390 kts | 233° |
| 2026-05-07 23:08 | -35.79682 | 148.33079 | 36249 ft | 390 kts | 233° |
| 2026-05-07 23:09 | -35.82859 | 148.27669 | 36239 ft | 390 kts | 233° |
| 2026-05-07 23:09 | -35.86036 | 148.22257 | 36249 ft | 390 kts | 233° |
| 2026-05-07 23:10 | -35.89215 | 148.16832 | 36225 ft | 391 kts | 233° |
| 2026-05-07 23:10 | -35.92406 | 148.11376 | 36249 ft | 393 kts | 233° |
| 2026-05-07 23:11 | -35.95587 | 148.05927 | 36261 ft | 390 kts | 233° |
| 2026-05-07 23:11 | -35.98759 | 148.00489 | 36258 ft | 390 kts | 233° |
| 2026-05-07 23:12 | -36.01927 | 147.95049 | 36259 ft | 390 kts | 233° |
| 2026-05-07 23:12 | -36.05073 | 147.89636 | 36245 ft | 391 kts | 233° |
| 2026-05-07 23:13 | -36.08260 | 147.84144 | 36253 ft | 391 kts | 233° |
| 2026-05-07 23:13 | -36.11407 | 147.78712 | 36253 ft | 391 kts | 233° |
| 2026-05-07 23:14 | -36.14569 | 147.73244 | 36253 ft | 391 kts | 233° |
| 2026-05-07 23:14 | -36.17734 | 147.67771 | 36253 ft | 391 kts | 233° |
| 2026-05-07 23:15 | -36.20893 | 147.62288 | 36239 ft | 392 kts | 232° |
| 2026-05-07 23:15 | -36.24067 | 147.56775 | 36260 ft | 393 kts | 232° |
| 2026-05-07 23:16 | -36.27245 | 147.51252 | 36260 ft | 394 kts | 232° |
| 2026-05-07 23:16 | -36.30421 | 147.45716 | 36249 ft | 393 kts | 232° |
| 2026-05-07 23:17 | -36.33594 | 147.40179 | 36254 ft | 394 kts | 232° |
| 2026-05-07 23:17 | -36.36765 | 147.34634 | 36243 ft | 395 kts | 232° |
| 2026-05-07 23:18 | -36.39942 | 147.29076 | 36256 ft | 395 kts | 232° |
| 2026-05-07 23:18 | -36.43117 | 147.23504 | 36253 ft | 395 kts | 232° |
| 2026-05-07 23:19 | -36.46285 | 147.17935 | 36259 ft | 395 kts | 232° |
| 2026-05-07 23:19 | -36.49459 | 147.12354 | 36261 ft | 395 kts | 232° |
| 2026-05-07 23:20 | -36.52630 | 147.06768 | 36243 ft | 396 kts | 232° |
| 2026-05-07 23:20 | -36.55783 | 147.01194 | 36249 ft | 397 kts | 232° |
| 2026-05-07 23:21 | -36.58957 | 146.95587 | 36251 ft | 396 kts | 232° |
| 2026-05-07 23:21 | -36.62125 | 146.89976 | 36268 ft | 397 kts | 232° |
| 2026-05-07 23:22 | -36.65302 | 146.84338 | 36251 ft | 397 kts | 232° |
| 2026-05-07 23:22 | -36.68469 | 146.78707 | 36251 ft | 396 kts | 232° |
| 2026-05-07 23:23 | -36.71629 | 146.73088 | 36253 ft | 396 kts | 232° |
| 2026-05-07 23:23 | -36.74794 | 146.67455 | 36254 ft | 397 kts | 232° |
| 2026-05-07 23:24 | -36.77965 | 146.61795 | 36252 ft | 399 kts | 232° |
| 2026-05-07 23:24 | -36.81126 | 146.56144 | 36246 ft | 395 kts | 232° |
| 2026-05-07 23:25 | -36.84256 | 146.50533 | 36243 ft | 392 kts | 232° |
| 2026-05-07 23:25 | -36.87361 | 146.44961 | 36252 ft | 392 kts | 232° |
| 2026-05-07 23:25 | -36.88922 | 146.42158 | 36133 ft | 392 kts | 232° |
| 2026-05-07 23:26 | -36.90485 | 146.39348 | 35805 ft | 396 kts | 232° |
| 2026-05-07 23:26 | -36.92058 | 146.36510 | 35544 ft | 398 kts | 232° |
| 2026-05-07 23:26 | -36.93631 | 146.33673 | 35297 ft | 397 kts | 232° |
| 2026-05-07 23:26 | -36.95186 | 146.30870 | 35023 ft | 397 kts | 232° |
| 2026-05-07 23:27 | -36.98309 | 146.25237 | 33856 ft | 392 kts | 232° |
| 2026-05-07 23:27 | -36.99862 | 146.22431 | 33036 ft | 392 kts | 232° |
| 2026-05-07 23:27 | -37.01413 | 146.19615 | 32247 ft | 393 kts | 232° |
| 2026-05-07 23:28 | -37.02967 | 146.16793 | 31468 ft | 394 kts | 232° |
| 2026-05-07 23:28 | -37.04520 | 146.13975 | 30734 ft | 394 kts | 232° |
| 2026-05-07 23:28 | -37.06072 | 146.11157 | 30026 ft | 392 kts | 232° |
| 2026-05-07 23:28 | -37.07615 | 146.08355 | 29267 ft | 390 kts | 232° |
| 2026-05-07 23:29 | -37.09149 | 146.05569 | 28581 ft | 389 kts | 232° |
| 2026-05-07 23:29 | -37.10683 | 146.02780 | 27941 ft | 388 kts | 232° |
| 2026-05-07 23:29 | -37.12204 | 146.00009 | 27297 ft | 384 kts | 232° |
| 2026-05-07 23:29 | -37.13715 | 145.97256 | 26646 ft | 382 kts | 232° |
| 2026-05-07 23:30 | -37.15213 | 145.94526 | 25997 ft | 379 kts | 232° |
| 2026-05-07 23:30 | -37.16701 | 145.91812 | 25376 ft | 376 kts | 232° |
| 2026-05-07 23:30 | -37.18178 | 145.89118 | 24732 ft | 374 kts | 232° |
| 2026-05-07 23:30 | -37.19648 | 145.86434 | 24090 ft | 373 kts | 232° |
| 2026-05-07 23:31 | -37.21111 | 145.83756 | 23360 ft | 370 kts | 232° |
| 2026-05-07 23:31 | -37.22556 | 145.81107 | 22679 ft | 367 kts | 232° |
| 2026-05-07 23:31 | -37.23997 | 145.78470 | 21997 ft | 365 kts | 232° |
| 2026-05-07 23:31 | -37.25426 | 145.75853 | 21331 ft | 362 kts | 232° |
| 2026-05-07 23:32 | -37.26842 | 145.73255 | 20729 ft | 359 kts | 232° |
| 2026-05-07 23:32 | -37.27771 | 145.71549 | 20335 ft | 357 kts | 232° |
| 2026-05-07 23:32 | -37.29165 | 145.68987 | 19764 ft | 354 kts | 232° |
| 2026-05-07 23:32 | -37.31022 | 145.65658 | 19056 ft | 349 kts | 231° |
| 2026-05-07 23:33 | -37.32448 | 145.63192 | 18526 ft | 348 kts | 231° |
| 2026-05-07 23:33 | -37.33872 | 145.60730 | 17949 ft | 348 kts | 231° |
| 2026-05-07 23:33 | -37.35293 | 145.58275 | 17390 ft | 347 kts | 230° |
| 2026-05-07 23:33 | -37.36250 | 145.56620 | 17015 ft | 346 kts | 230° |
| 2026-05-07 23:34 | -37.37662 | 145.54173 | 16477 ft | 345 kts | 230° |
| 2026-05-07 23:34 | -37.39070 | 145.51737 | 15942 ft | 343 kts | 230° |
| 2026-05-07 23:34 | -37.40462 | 145.49320 | 15468 ft | 341 kts | 230° |
| 2026-05-07 23:34 | -37.41839 | 145.46928 | 14966 ft | 340 kts | 230° |
| 2026-05-07 23:35 | -37.43248 | 145.44483 | 14436 ft | 340 kts | 230° |
| 2026-05-07 23:35 | -37.44647 | 145.42112 | 13911 ft | 334 kts | 227° |
| 2026-05-07 23:35 | -37.46241 | 145.40106 | 13341 ft | 325 kts | 219° |
| 2026-05-07 23:35 | -37.47933 | 145.38236 | 12669 ft | 322 kts | 218° |
| 2026-05-07 23:36 | -37.49606 | 145.36399 | 12091 ft | 317 kts | 219° |
| 2026-05-07 23:36 | -37.51245 | 145.34589 | 11582 ft | 309 kts | 219° |
| 2026-05-07 23:36 | -37.52843 | 145.32819 | 11136 ft | 302 kts | 218° |
| 2026-05-07 23:36 | -37.54390 | 145.31102 | 10902 ft | 290 kts | 218° |
| 2026-05-07 23:37 | -37.55862 | 145.29464 | 10726 ft | 275 kts | 218° |
| 2026-05-07 23:37 | -37.57259 | 145.27910 | 10571 ft | 261 kts | 218° |
| 2026-05-07 23:37 | -37.58584 | 145.26434 | 10402 ft | 249 kts | 218° |
| 2026-05-07 23:37 | -37.59881 | 145.24992 | 10243 ft | 249 kts | 218° |
| 2026-05-07 23:38 | -37.61176 | 145.23551 | 9994 ft | 248 kts | 218° |
| 2026-05-07 23:38 | -37.62466 | 145.22113 | 9690 ft | 247 kts | 218° |
| 2026-05-07 23:38 | -37.63754 | 145.20676 | 9385 ft | 248 kts | 218° |
| 2026-05-07 23:38 | -37.65042 | 145.19239 | 9049 ft | 246 kts | 219° |
| 2026-05-07 23:39 | -37.66317 | 145.17815 | 8739 ft | 246 kts | 219° |
| 2026-05-07 23:39 | -37.67601 | 145.16379 | 8439 ft | 246 kts | 219° |
| 2026-05-07 23:39 | -37.68879 | 145.14951 | 8140 ft | 245 kts | 219° |
| 2026-05-07 23:39 | -37.70156 | 145.13522 | 7839 ft | 246 kts | 220° |
| 2026-05-07 23:40 | -37.71433 | 145.12093 | 7551 ft | 243 kts | 220° |
| 2026-05-07 23:40 | -37.72668 | 145.10709 | 7391 ft | 231 kts | 220° |
| 2026-05-07 23:40 | -37.73841 | 145.09392 | 7136 ft | 222 kts | 220° |
| 2026-05-07 23:40 | -37.74990 | 145.08106 | 6759 ft | 220 kts | 220° |
| 2026-05-07 23:41 | -37.76137 | 145.06819 | 6405 ft | 220 kts | 221° |
| 2026-05-07 23:41 | -37.77281 | 145.05535 | 6100 ft | 219 kts | 220° |
| 2026-05-07 23:41 | -37.78410 | 145.04268 | 5861 ft | 213 kts | 220° |
| 2026-05-07 23:41 | -37.79488 | 145.03060 | 5690 ft | 201 kts | 221° |
| 2026-05-07 23:42 | -37.80502 | 145.01920 | 5412 ft | 190 kts | 221° |
| 2026-05-07 23:42 | -37.81342 | 145.00664 | 5077 ft | 186 kts | 238° |
| 2026-05-07 23:42 | -37.81710 | 144.99139 | 4867 ft | 179 kts | 252° |
| 2026-05-07 23:42 | -37.81959 | 144.97608 | 4638 ft | 176 kts | 252° |
| 2026-05-07 23:43 | -37.82219 | 144.96096 | 4423 ft | 176 kts | 252° |
| 2026-05-07 23:43 | -37.82481 | 144.94590 | 4215 ft | 175 kts | 251° |
| 2026-05-07 23:43 | -37.82696 | 144.93081 | 3989 ft | 175 kts | 255° |
| 2026-05-07 23:43 | -37.82872 | 144.91568 | 3750 ft | 173 kts | 255° |
| 2026-05-07 23:44 | -37.83056 | 144.90066 | 3520 ft | 172 kts | 254° |
| 2026-05-07 23:44 | -37.83184 | 144.88553 | 3278 ft | 176 kts | 263° |
| 2026-05-07 23:44 | -37.82697 | 144.87067 | 3012 ft | 197 kts | 301° |
| 2026-05-07 23:44 | -37.81435 | 144.86252 | 2755 ft | 215 kts | 342° |
| 2026-05-07 23:45 | -37.79954 | 144.86094 | 2467 ft | 212 kts | 348° |
| 2026-05-07 23:45 | -37.78502 | 144.85891 | 2220 ft | 210 kts | 346° |
| 2026-05-07 23:45 | -37.77076 | 144.85662 | 1961 ft | 199 kts | 345° |
| 2026-05-07 23:45 | -37.75742 | 144.85433 | 1706 ft | 189 kts | 344° |
| 2026-05-07 23:46 | -37.74479 | 144.85210 | 1489 ft | 178 kts | 344° |
| 2026-05-07 23:46 | -37.73277 | 144.84996 | 1240 ft | 171 kts | 345° |
| 2026-05-07 23:46 | -37.72132 | 144.84776 | 1024 ft | 163 kts | 345° |
| 2026-05-07 23:46 | -37.71036 | 144.84594 | 771 ft | 151 kts | 343° |
| 2026-05-07 23:47 | -37.70020 | 144.84376 | 602 ft | 150 kts | 342° |
| 2026-05-07 23:47 | -37.68992 | 144.84181 | 461 ft | 148 kts | 344° |
| 2026-05-07 23:47 | -37.68008 | 144.83996 | 367 ft | 138 kts | 344° |
| 2026-05-07 23:47 | -37.67191 | 144.83839 | 386 ft | 91 kts | 351° |
| 2026-05-07 23:48 | -37.66764 | 144.83760 | 397 ft | 33 kts | 350° |
| 2026-05-07 23:48 | -37.66631 | 144.83737 | 405 ft | 19 kts | 353° |
| 2026-05-07 23:48 | -37.66519 | 144.83790 | 409 ft | 16 kts | 67° |
| 2026-05-07 23:48 | -37.66510 | 144.83917 | 409 ft | 14 kts | 93° |
| 2026-05-07 23:49 | -37.66519 | 144.84039 | 409 ft | 15 kts | 98° |
| 2026-05-07 23:49 | -37.66579 | 144.84144 | 407 ft | 16 kts | 157° |
| 2026-05-07 23:49 | -37.66663 | 144.84173 | 403 ft | 11 kts | 156° |
| 2026-05-07 23:49 | -37.66695 | 144.84258 | 402 ft | 13 kts | 82° |
| 2026-05-07 23:50 | -37.66681 | 144.84378 | 403 ft | 14 kts | 82° |
| 2026-05-07 23:50 | -37.66668 | 144.84493 | 404 ft | 12 kts | 81° |
| 2026-05-07 23:50 | -37.66654 | 144.84608 | 405 ft | 15 kts | 82° |
| 2026-05-07 23:50 | -37.66643 | 144.84700 | 407 ft | 11 kts | 81° |
| 2026-05-07 23:51 | -37.66646 | 144.84781 | 407 ft | 9 kts | 130° |
| 2026-05-07 23:51 | -37.66710 | 144.84816 | 406 ft | 11 kts | 165° |
| 2026-05-07 23:51 | -37.66770 | 144.84834 | 404 ft | 6 kts | 172° |
| 2026-05-07 23:51 | -37.66804 | 144.84853 | 404 ft | 5 kts | 111° |
| 2026-05-07 23:52 | -37.66802 | 144.84885 | 404 ft | 2 kts | 82° |
| 2026-05-07 23:52 | -37.66801 | 144.84895 | 404 ft | 2 kts | 80° |
| 2026-05-07 23:52 | -37.66799 | 144.84915 | 404 ft | 2 kts | 81° |
| 2026-05-07 23:52 | -37.66798 | 144.84917 | 404 ft | 0 kts | 82° |